Time;durP1;ratioP1;P1;durP2;ratioP2;P2;SDS_P1;SDS_P2;PMS_P1;PMS_P2;Temp;Humidity;BMP_temperature;BMP_pressure;BME280_temperature;BME280_humidity;BME280_pressure;Samples;Min_cycle;Max_cycle;Signal;HPM_P1;HPM_P2
2024/02/08 00:01:54;;;;;;;6.30;3.40;;;;;;;1.07;74.88;99909.61;109016;1254;138913;-69
2024/02/08 00:04:21;;;;;;;6.00;3.00;;;;;;;1.08;74.79;99908.44;109229;1254;59957;-68
2024/02/08 00:06:48;;;;;;;8.00;3.20;;;;;;;1.10;74.64;99908.16;109078;1255;138736;-58
2024/02/08 00:09:14;;;;;;;6.40;3.30;;;;;;;1.11;74.70;99907.02;109217;1254;75513;-58
2024/02/08 00:11:41;;;;;;;9.30;4.40;;;;;;;1.07;74.34;99905.08;109130;1254;64268;-67
2024/02/08 00:14:08;;;;;;;45.50;18.20;;;;;;;0.97;74.15;99909.77;105431;1257;139503;-69
2024/02/08 00:16:37;;;;;;;85.50;32.10;;;;;;;0.86;74.16;99911.14;105006;1259;62258;-69
2024/02/08 00:19:03;;;;;;;23.90;10.20;;;;;;;0.74;73.94;99914.86;104992;1256;138171;-67
2024/02/08 00:21:32;;;;;;;144.60;51.80;;;;;;;0.62;73.95;99910.59;105046;1256;74883;-58
2024/02/08 00:24:00;;;;;;;32.70;15.70;;;;;;;0.50;74.16;99915.01;109150;1254;65413;-68
2024/02/08 00:26:26;;;;;;;14.70;7.60;;;;;;;0.41;74.35;99924.91;107934;1254;138504;-69
2024/02/08 00:28:53;;;;;;;61.70;23.50;;;;;;;0.34;74.39;99927.68;105072;1256;62159;-60
2024/02/08 00:31:20;;;;;;;11.60;7.10;;;;;;;0.28;74.44;99934.55;105024;1254;138085;-69
2024/02/08 00:33:48;;;;;;;15.00;7.30;;;;;;;0.20;74.57;99942.10;105094;1254;77263;-69
2024/02/08 00:36:15;;;;;;;8.80;5.50;;;;;;;0.13;74.50;99946.88;108995;1256;66439;-68
2024/02/08 00:38:44;;;;;;;9.90;5.60;;;;;;;0.05;74.61;99952.85;106142;1257;138472;-69
2024/02/08 00:41:11;;;;;;;9.30;5.80;;;;;;;-0.01;74.78;99953.59;104939;1254;62425;-69
2024/02/08 00:43:40;;;;;;;10.10;5.50;;;;;;;-0.05;74.88;99950.60;105086;1255;139501;-70
2024/02/08 00:46:07;;;;;;;8.20;4.90;;;;;;;-0.08;75.00;99952.84;105058;1258;76152;-70
2024/02/08 00:48:33;;;;;;;6.10;3.80;;;;;;;-0.07;75.45;99954.63;104960;1259;138767;-69
2024/02/08 00:51:00;;;;;;;6.60;3.90;;;;;;;-0.04;75.50;99953.76;105036;1258;73693;-69
2024/02/08 00:53:27;;;;;;;6.60;3.30;;;;;;;0.02;75.67;99958.41;109152;1254;60126;-68
2024/02/08 00:55:54;;;;;;;6.90;3.20;;;;;;;0.11;75.98;99959.20;109116;1254;138946;-68
2024/02/08 00:58:21;;;;;;;5.20;3.30;;;;;;;0.18;76.01;99961.16;109237;1255;76508;-68
2024/02/08 01:00:48;;;;;;;4.10;2.90;;;;;;;0.24;75.77;99957.14;109090;1254;138762;-68
2024/02/08 01:03:15;;;;;;;6.00;3.10;;;;;;;0.30;75.96;99957.48;107476;1258;71020;-60
2024/02/08 01:05:42;;;;;;;5.10;2.30;;;;;;;0.38;75.74;99952.02;105081;1259;62271;-59
2024/02/08 01:08:09;;;;;;;3.20;2.50;;;;;;;0.43;75.69;99951.42;104983;1258;137923;-68
2024/02/08 01:10:35;;;;;;;4.40;2.60;;;;;;;0.48;75.65;99956.16;104918;1260;76494;-68
2024/02/08 01:13:04;;;;;;;4.50;2.50;;;;;;;0.47;75.59;99958.02;105042;1259;139248;-67
2024/02/08 01:15:31;;;;;;;6.40;2.30;;;;;;;0.44;75.42;99960.96;109151;1254;73700;-68
2024/02/08 01:17:58;;;;;;;4.10;2.50;;;;;;;0.37;75.13;99959.05;109110;1254;59833;-68
2024/02/08 01:20:27;;;;;;;3.90;2.30;;;;;;;0.28;75.31;99969.10;109105;1254;137522;-69
2024/02/08 01:22:54;;;;;;;4.50;2.50;;;;;;;0.18;75.11;99974.60;109207;1254;73520;-68
2024/02/08 01:25:21;;;;;;;4.40;2.20;;;;;;;0.09;75.13;99977.19;109101;1254;138441;-68
2024/02/08 01:27:47;;;;;;;3.60;2.70;;;;;;;-0.03;74.90;99977.45;109212;1254;71709;-68
2024/02/08 01:30:14;;;;;;;3.90;2.20;;;;;;;-0.14;74.82;99976.31;109233;1254;60103;-68
2024/02/08 01:32:41;;;;;;;4.40;2.40;;;;;;;-0.25;74.95;99978.84;109113;1254;138253;-68
2024/02/08 01:35:10;;;;;;;4.00;2.30;;;;;;;-0.32;75.16;99976.01;109221;1254;76707;-69
2024/02/08 01:37:40;;;;;;;5.60;2.60;;;;;;;-0.41;75.20;99973.30;107145;1256;138542;-68
2024/02/08 01:40:16;;;;;;;8.60;2.70;;;;;;;-0.49;75.18;99975.25;106531;1256;71690;-69
2024/02/08 01:42:43;;;;;;;3.40;2.30;;;;;;;-0.56;75.35;99975.55;109044;1254;138652;-68
2024/02/08 01:45:37;;;;;;;7.10;3.10;;;;;;;-0.60;75.35;99977.02;109024;1254;60095;-68
2024/02/08 01:48:10;;;;;;;4.60;2.40;;;;;;;-0.67;75.50;99976.98;109205;1254;75465;-60
2024/02/08 01:50:42;;;;;;;5.30;2.70;;;;;;;-0.69;75.64;99974.94;105713;1255;138339;-61
2024/02/08 01:53:13;;;;;;;5.70;2.50;;;;;;;-0.71;75.75;99974.52;105162;1259;73135;-58
2024/02/08 01:55:40;;;;;;;4.60;2.60;;;;;;;-0.72;75.99;99970.67;105038;1255;138445;-58
2024/02/08 01:58:07;;;;;;;3.10;2.00;;;;;;;-0.72;76.13;99969.62;104948;1255;62239;-59
2024/02/08 02:00:37;;;;;;;4.60;2.50;;;;;;;-0.71;75.97;99974.15;109042;1254;138915;-58
2024/02/08 02:03:15;;;;;;;3.50;2.30;;;;;;;-0.71;76.02;99969.84;109242;1254;66746;-68
2024/02/08 02:05:46;;;;;;;3.20;2.40;;;;;;;-0.73;76.05;99971.27;109150;1254;72907;-58
2024/02/08 02:08:16;;;;;;;3.40;2.10;;;;;;;-0.74;76.26;99971.02;108917;1254;138923;-59
2024/02/08 02:10:48;;;;;;;5.60;2.40;;;;;;;-0.75;76.25;99974.63;107254;1257;62076;-67
2024/02/08 02:13:16;;;;;;;6.50;2.40;;;;;;;-0.77;76.22;99973.45;109094;1254;138232;-67
2024/02/08 02:15:42;;;;;;;4.50;2.50;;;;;;;-0.79;76.17;99981.28;109019;1254;66517;-58
2024/02/08 02:18:11;;;;;;;4.10;2.30;;;;;;;-0.82;76.22;99976.66;109034;1254;71771;-58
2024/02/08 02:20:38;;;;;;;4.50;2.30;;;;;;;-0.84;76.21;99982.39;109084;1254;138837;-59
2024/02/08 02:23:09;;;;;;;4.50;2.40;;;;;;;-0.86;76.29;99978.84;106825;1254;62092;-60
2024/02/08 02:25:38;;;;;;;3.70;2.50;;;;;;;-0.88;76.45;99980.61;104839;1261;138800;-58
2024/02/08 02:28:08;;;;;;;4.70;2.40;;;;;;;-0.90;76.17;99980.47;109186;1254;66527;-59
2024/02/08 02:30:35;;;;;;;9.90;2.40;;;;;;;-0.93;76.26;99981.67;109108;1254;139078;-58
2024/02/08 02:33:03;;;;;;;4.80;2.70;;;;;;;-0.95;76.38;99980.15;109001;1254;59960;-68
2024/02/08 02:35:30;;;;;;;8.60;2.70;;;;;;;-0.99;76.38;99980.64;106910;1254;61461;-58
2024/02/08 02:38:02;;;;;;;6.40;3.10;;;;;;;-1.02;76.47;99982.34;104978;1258;138949;-68
2024/02/08 02:40:33;;;;;;;9.40;4.20;;;;;;;-1.07;76.36;99982.96;109221;1254;66804;-58
2024/02/08 02:43:09;;;;;;;8.10;4.10;;;;;;;-1.11;76.36;99982.86;105702;1254;138600;-69
2024/02/08 02:45:36;;;;;;;10.90;5.00;;;;;;;-1.16;76.46;99984.81;105033;1255;62142;-68
2024/02/08 02:48:03;;;;;;;22.50;10.60;;;;;;;-1.20;76.62;99989.61;104920;1254;62120;-59
2024/02/08 02:50:32;;;;;;;11.70;6.40;;;;;;;-1.24;76.60;99986.21;109095;1256;140363;-68
2024/02/08 02:52:59;;;;;;;19.10;8.90;;;;;;;-1.28;76.67;99989.23;109223;1255;64099;-69
2024/02/08 02:55:27;;;;;;;18.20;9.60;;;;;;;-1.32;76.68;99989.04;109094;1254;138916;-68
2024/02/08 02:57:57;;;;;;;328.40;111.30;;;;;;;-1.34;76.67;99990.44;109136;1256;60057;-68
2024/02/08 03:00:24;;;;;;;179.20;81.90;;;;;;;-1.38;76.67;99994.18;109044;1254;139249;-67
2024/02/08 03:02:52;;;;;;;40.10;22.40;;;;;;;-1.41;76.87;99998.64;109258;1254;76068;-59
2024/02/08 03:05:22;;;;;;;67.30;37.80;;;;;;;-1.43;76.81;100004.54;109023;1254;66985;-59
2024/02/08 03:07:52;;;;;;;141.00;64.10;;;;;;;-1.46;76.90;99999.75;109126;1254;138552;-59
2024/02/08 03:10:22;;;;;;;296.60;108.40;;;;;;;-1.48;76.86;100003.06;109237;1254;59814;-59
2024/02/08 03:12:49;;;;;;;61.90;35.50;;;;;;;-1.49;76.85;100002.27;109081;1254;139739;-60
2024/02/08 03:15:16;;;;;;;101.50;60.70;;;;;;;-1.51;76.97;100000.61;109240;1254;74912;-60
2024/02/08 03:17:43;;;;;;;24.50;16.90;;;;;;;-1.51;77.00;100006.95;109107;1257;65593;-60
2024/02/08 03:20:16;;;;;;;14.30;8.90;;;;;;;-1.52;77.15;100001.58;109008;1255;139081;-59
2024/02/08 03:22:44;;;;;;;38.30;21.30;;;;;;;-1.51;77.01;100002.52;108983;1255;60163;-59
2024/02/08 03:25:14;;;;;;;27.60;19.00;;;;;;;-1.48;77.06;100004.61;105121;1257;139940;-59
2024/02/08 03:27:42;;;;;;;31.90;19.80;;;;;;;-1.44;77.23;100003.80;105095;1254;74784;-60
2024/02/08 03:30:30;;;;;;;35.70;23.40;;;;;;;-1.37;77.32;99997.00;109197;1254;64515;-59
2024/02/08 03:32:58;;;;;;;16.10;11.10;;;;;;;-1.24;77.63;99989.67;109166;1254;71910;-60
2024/02/08 03:35:27;;;;;;;28.30;15.80;;;;;;;-1.11;77.72;99991.66;109007;1255;59775;-59
2024/02/08 03:37:54;;;;;;;28.20;17.20;;;;;;;-0.99;77.75;99988.06;109152;1254;139105;-59
2024/02/08 03:40:22;;;;;;;27.20;16.30;;;;;;;-0.87;77.74;99991.69;109070;1254;76435;-68
2024/02/08 03:42:49;;;;;;;36.40;20.80;;;;;;;-0.77;77.56;99987.63;106531;1254;138844;-67
2024/02/08 03:45:23;;;;;;;42.40;24.20;;;;;;;-0.66;77.63;99984.10;105124;1259;73335;-68
2024/02/08 03:47:50;;;;;;;30.70;17.40;;;;;;;-0.56;77.66;99981.92;109194;1254;60036;-58
2024/02/08 03:50:17;;;;;;;34.60;19.70;;;;;;;-0.45;77.47;99983.40;109184;1254;139258;-58
2024/02/08 03:52:44;;;;;;;23.00;11.80;;;;;;;-0.35;77.38;99980.32;109198;1254;75458;-68
2024/02/08 03:55:13;;;;;;;27.00;15.20;;;;;;;-0.28;77.44;99977.98;109112;1254;138199;-58
2024/02/08 03:57:39;;;;;;;37.30;18.60;;;;;;;-0.19;77.26;99982.25;109032;1254;71716;-68
2024/02/08 04:00:13;;;;;;;23.50;12.00;;;;;;;-0.12;77.21;99980.02;109211;1254;59927;-68
2024/02/08 04:02:43;;;;;;;25.70;14.20;;;;;;;-0.06;77.20;99982.47;109118;1258;138459;-67
2024/02/08 04:05:19;;;;;;;23.20;12.70;;;;;;;-0.02;77.08;99984.23;109260;1255;75121;-68
2024/02/08 04:07:57;;;;;;;37.30;17.80;;;;;;;0.04;77.01;99983.48;109102;1254;138220;-68
2024/02/08 04:53:30;;;;;;;20.90;12.60;;;;;;;0.08;76.83;99982.48;109193;1254;73773;-68
2024/02/08 04:54:41;;;;;;;23.40;16.80;;;;;;;-1.06;76.41;99981.96;105045;1259;139491;-58
2024/02/08 04:57:09;;;;;;;11.00;7.50;;;;;;;-1.17;76.56;99985.13;105158;1259;62051;-60
2024/02/08 04:59:41;;;;;;;5.40;3.80;;;;;;;-1.27;76.67;99984.70;109233;1257;74674;-58
2024/02/08 05:02:09;;;;;;;5.30;3.80;;;;;;;-1.35;76.88;99988.17;109148;1254;139420;-59
2024/02/08 05:04:35;;;;;;;5.90;3.60;;;;;;;-1.40;76.95;99984.80;105770;1256;72830;-61
2024/02/08 05:07:06;;;;;;;5.90;4.10;;;;;;;-1.45;77.21;99985.66;104967;1259;138476;-67
2024/02/08 05:09:33;;;;;;;9.00;3.70;;;;;;;-1.50;77.34;99984.17;109168;1257;60417;-69
2024/02/08 05:12:00;;;;;;;6.70;3.50;;;;;;;-1.56;77.41;99983.27;109202;1257;73814;-68
2024/02/08 05:14:27;;;;;;;6.70;4.00;;;;;;;-1.58;77.53;99993.85;109151;1254;139122;-58
2024/02/08 05:16:58;;;;;;;5.80;4.50;;;;;;;-1.61;77.50;99995.35;109196;1254;73628;-59
2024/02/08 05:19:25;;;;;;;7.50;5.20;;;;;;;-1.64;77.81;99995.91;109077;1254;138503;-59
2024/02/08 05:21:59;;;;;;;7.50;5.20;;;;;;;-1.65;77.85;99996.37;107719;1257;60475;-59
2024/02/08 05:24:30;;;;;;;;;;;;;;;-1.65;77.90;99993.38;106689;1257;76308;-58
2024/02/08 05:26:57;;;;;;;8.60;4.40;;;;;;;-1.65;78.18;99997.19;109099;1255;124896;-58
2024/02/08 05:29:24;;;;;;;7.20;3.90;;;;;;;-1.66;78.26;100001.80;108454;1258;71455;-68
2024/02/08 05:31:51;;;;;;;9.40;4.10;;;;;;;-1.66;78.31;100002.96;105019;1258;138957;-69
2024/02/08 05:34:18;;;;;;;6.50;3.80;;;;;;;-1.67;78.15;100003.60;105120;1258;62086;-59
2024/02/08 05:36:45;;;;;;;9.30;3.80;;;;;;;-1.65;78.34;100006.98;104776;1256;138740;-59
2024/02/08 05:39:23;;;;;;;5.30;3.30;;;;;;;-1.64;78.54;100005.19;105087;1258;66621;-60
2024/02/08 05:41:55;;;;;;;7.30;3.60;;;;;;;-1.64;78.57;100008.59;105422;1259;73619;-68
2024/02/08 05:44:21;;;;;;;9.60;3.90;;;;;;;-1.63;78.63;100007.45;109136;1254;138324;-59
2024/02/08 05:46:48;;;;;;;7.10;3.80;;;;;;;-1.62;78.68;100011.31;107564;1259;61083;-59
2024/02/08 05:49:15;;;;;;;9.50;3.10;;;;;;;-1.63;78.72;100008.52;105052;1257;138046;-60
2024/02/08 05:51:51;;;;;;;4.80;3.00;;;;;;;-1.65;78.67;100009.58;105042;1255;66101;-60
2024/02/08 05:54:31;;;;;;;4.10;3.30;;;;;;;-1.68;78.75;100007.68;108996;1254;72426;-60
2024/02/08 05:57:02;;;;;;;7.40;3.50;;;;;;;-1.70;78.67;100009.77;109068;1255;138821;-60
2024/02/08 05:59:29;;;;;;;10.20;4.00;;;;;;;-1.73;78.78;100011.83;109227;1257;60748;-59
2024/02/08 06:01:58;;;;;;;7.00;3.90;;;;;;;-1.75;78.84;100011.73;106391;1259;138875;-68
2024/02/08 06:04:27;;;;;;;8.00;4.10;;;;;;;-1.76;78.97;100009.79;109174;1254;65733;-68
2024/02/08 06:07:05;;;;;;;8.00;4.00;;;;;;;-1.78;79.13;100006.08;108814;1254;139615;-68
2024/02/08 06:12:51;;;;;;;6.50;3.70;;;;;;;-1.70;79.18;100011.31;109211;1257;59981;-60
2024/02/08 06:15:14;;;;;;;7.40;3.90;;;;;;;-1.66;79.31;100013.83;109193;1254;74721;-60
2024/02/08 06:17:45;;;;;;;;;;;;;;;-1.61;79.29;100013.62;109296;1254;65532;-59
2024/02/08 06:20:14;;;;;;;8.60;3.90;;;;;;;-1.55;79.44;100017.23;106356;1258;125882;-59
2024/02/08 06:22:43;;;;;;;6.00;4.10;;;;;;;-1.50;79.53;100015.63;109187;1254;59795;-59
2024/02/08 06:25:27;;;;;;;7.10;4.50;;;;;;;-1.47;79.45;100020.86;109097;1254;138816;-59
2024/02/08 06:27:56;;;;;;;7.80;4.30;;;;;;;-1.42;79.35;100020.30;109225;1254;74250;-59
2024/02/08 06:30:25;;;;;;;6.10;4.40;;;;;;;-1.36;79.52;100020.64;108900;1254;65091;-60
2024/02/08 06:33:13;;;;;;;7.70;4.60;;;;;;;-1.30;79.51;100018.26;108949;1255;138805;-59
2024/02/08 06:35:45;;;;;;;7.10;4.80;;;;;;;-1.21;79.54;100019.47;109202;1254;59806;-58
2024/02/08 06:38:13;;;;;;;8.50;4.00;;;;;;;-1.13;79.51;100016.85;109076;1254;138703;-58
2024/02/08 06:40:53;;;;;;;9.00;4.20;;;;;;;-1.06;79.62;100013.67;109199;1254;74734;-58
2024/02/08 06:48:48;;;;;;;8.60;5.00;;;;;;;-0.83;79.30;100006.38;109104;1255;59933;-59
2024/02/08 07:38:07;;;;;;;11.60;7.70;;;;;;;0.40;78.14;100007.02;109093;1254;138229;-59
2024/02/08 07:40:36;;;;;;;41.10;20.20;;;;;;;0.43;78.06;100006.46;109142;1254;71485;-69
2024/02/08 07:45:42;;;;;;;29.80;14.90;;;;;;;0.60;77.89;100013.56;109169;1254;60263;-69
2024/02/08 07:48:14;;;;;;;65.50;29.40;;;;;;;0.64;77.79;100011.16;109206;1255;76106;-69
2024/02/08 07:50:47;;;;;;;20.30;12.10;;;;;;;0.67;77.59;100012.42;108957;1254;139150;-69
2024/02/08 07:53:33;;;;;;;15.80;10.50;;;;;;;0.69;77.57;100012.17;109162;1256;71910;-69
2024/02/08 07:56:29;;;;;;;15.50;8.00;;;;;;;0.71;77.52;100009.21;109059;1257;138770;-68
2024/02/08 07:58:53;;;;;;;13.40;7.80;;;;;;;0.75;77.43;100005.41;109179;1254;60068;-69
2024/02/08 08:01:19;;;;;;;11.60;6.90;;;;;;;0.78;77.24;100003.35;109050;1257;138275;-69
2024/02/08 08:03:49;;;;;;;9.60;5.80;;;;;;;0.83;77.30;99997.67;109242;1254;65360;-59
2024/02/08 08:06:16;;;;;;;11.30;6.80;;;;;;;0.89;77.25;99998.33;108985;1254;72709;-59
2024/02/08 08:08:43;;;;;;;14.00;6.60;;;;;;;0.93;77.18;99994.42;109139;1255;138196;-60
2024/02/08 08:11:15;;;;;;;14.90;6.70;;;;;;;0.99;77.15;99996.78;108875;1254;60864;-59
2024/02/08 08:19:12;;;;;;;45.30;20.60;;;;;;;1.16;76.95;99996.27;104932;1260;139629;-59
2024/02/08 08:22:03;;;;;;;30.40;16.70;;;;;;;1.24;77.10;100001.67;108365;1254;62130;-60
2024/02/08 08:24:42;;;;;;;18.00;9.40;;;;;;;1.33;77.02;99996.77;105105;1255;62059;-59
2024/02/08 08:27:32;;;;;;;13.70;7.20;;;;;;;1.36;76.78;99994.65;106123;1259;138698;-69
2024/02/08 08:29:59;;;;;;;10.80;5.70;;;;;;;1.46;76.87;99994.83;105089;1258;65253;-69
2024/02/08 08:40:40;;;;;;;16.30;7.60;;;;;;;1.79;76.53;99976.49;109181;1255;73030;-59
2024/02/08 08:43:10;;;;;;;15.40;8.30;;;;;;;1.84;76.04;99973.14;109059;1254;137969;-68
2024/02/08 08:45:40;;;;;;;12.10;7.00;;;;;;;1.94;76.19;99969.78;109167;1254;71820;-69
2024/02/08 08:48:08;;;;;;;15.60;8.60;;;;;;;2.06;76.00;99963.06;109135;1256;59722;-69
2024/02/08 08:50:35;;;;;;;15.30;8.00;;;;;;;2.18;75.97;99957.77;109107;1254;138256;-69
2024/02/08 08:53:19;;;;;;;14.10;8.40;;;;;;;2.37;76.03;99958.91;109164;1257;75117;-69
2024/02/08 08:55:50;;;;;;;15.50;8.70;;;;;;;2.49;75.47;99957.75;109072;1254;137907;-70
2024/02/08 08:58:22;;;;;;;15.40;9.60;;;;;;;2.55;75.36;99956.80;108190;1259;71011;-70
2024/02/08 09:00:58;;;;;;;18.10;9.60;;;;;;;2.64;75.08;99959.60;104930;1259;141329;-68
2024/02/08 09:03:26;;;;;;;13.30;7.90;;;;;;;2.64;74.92;99953.57;109110;1260;60130;-69
2024/02/08 09:05:57;;;;;;;15.40;8.70;;;;;;;2.67;74.81;99946.75;109206;1254;74118;-69
2024/02/08 09:08:34;;;;;;;15.20;8.20;;;;;;;2.72;74.67;99940.38;109080;1254;138850;-69
2024/02/08 09:11:03;;;;;;;13.00;7.80;;;;;;;2.80;74.58;99930.16;108995;1255;72185;-59
2024/02/08 09:13:30;;;;;;;13.40;6.80;;;;;;;2.85;74.34;99945.08;109107;1254;138447;-68
2024/02/08 09:16:29;;;;;;;12.30;7.30;;;;;;;2.85;73.93;99946.49;109146;1254;60329;-68
2024/02/08 09:21:26;;;;;;;14.40;7.00;;;;;;;2.78;73.80;99938.56;109174;1259;66271;-69
2024/02/08 09:23:53;;;;;;;12.70;7.80;;;;;;;2.77;73.69;99940.78;109059;1254;188442;-59
2024/02/08 09:26:24;;;;;;;11.90;8.20;;;;;;;2.73;73.63;99942.17;105744;1259;138242;-59
2024/02/08 09:28:51;;;;;;;14.60;8.90;;;;;;;2.69;73.47;99946.14;105071;1257;62172;-59
2024/02/08 09:31:19;;;;;;;13.40;7.00;;;;;;;2.64;73.42;99945.56;108995;1254;138355;-60
2024/02/08 09:33:47;;;;;;;16.70;8.90;;;;;;;2.58;73.36;99942.02;109130;1254;66101;-60
2024/02/08 09:36:15;;;;;;;14.10;7.90;;;;;;;2.52;73.53;99942.29;108925;1255;73736;-60
2024/02/08 09:38:44;;;;;;;13.90;7.00;;;;;;;2.42;73.34;99941.34;109010;1257;138387;-70
2024/02/08 09:41:24;;;;;;;17.20;6.40;;;;;;;2.34;73.47;99940.98;109141;1254;60220;-59
2024/02/08 09:43:56;;;;;;;16.00;7.30;;;;;;;2.28;73.22;99936.73;109016;1256;138677;-70
2024/02/08 09:49:00;;;;;;;12.00;6.00;;;;;;;2.27;73.79;99926.45;109035;1254;139505;-68
2024/02/08 09:51:29;;;;;;;15.00;7.10;;;;;;;2.26;73.74;99922.80;109188;1254;60098;-70
2024/02/08 09:54:14;;;;;;;17.10;6.60;;;;;;;2.27;73.80;99923.17;109073;1257;60329;-69
2024/02/08 09:56:50;;;;;;;12.50;6.50;;;;;;;2.37;73.94;99917.36;108884;1260;139788;-70
2024/02/08 09:59:18;;;;;;;15.40;6.20;;;;;;;2.51;74.02;99915.73;109198;1255;64700;-70
2024/02/08 10:01:49;;;;;;;13.60;6.30;;;;;;;2.65;74.11;99918.59;108870;1260;138850;-59
2024/02/08 10:04:17;;;;;;;17.70;6.20;;;;;;;2.80;74.14;99915.09;109214;1254;59877;-60
2024/02/08 10:09:46;;;;;;;17.70;6.10;;;;;;;3.09;73.91;99902.97;109179;1254;73268;-59
2024/02/08 10:12:20;;;;;;;13.50;6.10;;;;;;;3.22;73.67;99900.38;109071;1254;64256;-60
2024/02/08 10:14:54;;;;;;;;;;;;;;;3.30;73.60;99898.42;108917;1254;138029;-60
2024/02/08 10:17:41;;;;;;;;;;;;;;;3.44;73.45;99895.48;108406;1254;59711;-60
2024/02/08 10:22:56;;;;;;;15.10;5.40;;;;;;;3.75;73.35;99880.42;109146;1254;74532;-70
2024/02/08 10:28:21;;;;;;;14.40;5.80;;;;;;;4.00;73.07;99879.63;109151;1254;70466;-70
2024/02/08 10:30:54;;;;;;;16.20;6.10;;;;;;;4.16;72.78;99875.52;109194;1254;59797;-70
2024/02/08 10:33:23;;;;;;;16.60;5.90;;;;;;;4.24;72.46;99873.20;109133;1254;137366;-59
2024/02/08 10:35:53;;;;;;;13.90;6.20;;;;;;;4.28;72.21;99877.68;106725;1255;73570;-59
2024/02/08 10:38:29;;;;;;;17.20;5.80;;;;;;;4.31;72.09;99873.10;109085;1254;138175;-59
2024/02/08 10:40:59;;;;;;;13.20;6.40;;;;;;;4.41;71.96;99866.52;109194;1254;73561;-59
2024/02/08 10:43:25;;;;;;;17.30;8.20;;;;;;;4.53;71.93;99861.04;109025;1254;138568;-59
2024/02/08 10:45:53;;;;;;;22.40;9.60;;;;;;;4.58;71.63;99858.41;107537;1255;60968;-59
2024/02/08 10:48:23;;;;;;;19.50;10.30;;;;;;;4.65;71.57;99858.64;105243;1254;74952;-68
2024/02/08 10:50:50;;;;;;;16.70;8.10;;;;;;;4.71;71.32;99855.41;109038;1254;138029;-60
2024/02/08 10:53:43;;;;;;;14.60;6.50;;;;;;;4.67;71.06;99854.39;109187;1254;73447;-60
2024/02/08 10:56:14;;;;;;;15.90;7.20;;;;;;;4.57;70.61;99851.44;104848;1257;138732;-60
2024/02/08 10:58:55;;;;;;;26.50;12.00;;;;;;;4.45;70.52;99851.88;109184;1254;59743;-58
2024/02/08 11:01:37;;;;;;;39.60;17.60;;;;;;;4.35;70.44;99852.06;108842;1254;139209;-60
2024/02/08 11:04:17;;;;;;;92.80;45.30;;;;;;;4.30;70.47;99855.37;107552;1254;64659;-60
2024/02/08 11:06:54;;;;;;;225.10;88.00;;;;;;;4.44;70.80;99851.16;109077;1254;71747;-61
2024/02/08 11:09:21;;;;;;;388.60;162.60;;;;;;;4.62;70.69;99852.14;108932;1254;139024;-60
2024/02/08 11:11:59;;;;;;;192.50;87.00;;;;;;;4.70;70.45;99843.53;109174;1254;60585;-60
2024/02/08 11:14:35;;;;;;;46.80;25.80;;;;;;;4.77;70.25;99840.63;108886;1254;138542;-59
2024/02/08 11:17:05;;;;;;;35.30;17.30;;;;;;;4.88;70.23;99836.34;109229;1254;66692;-69
2024/02/08 11:19:34;;;;;;;34.90;18.50;;;;;;;5.04;70.09;99833.19;108845;1254;138176;-69
2024/02/08 11:22:24;;;;;;;23.00;9.60;;;;;;;5.22;69.85;99835.32;109182;1254;59749;-69
2024/02/08 11:24:57;;;;;;;16.90;7.30;;;;;;;5.37;69.56;99831.27;109243;1254;59866;-60
2024/02/08 11:27:27;;;;;;;23.00;9.90;;;;;;;5.42;69.26;99829.17;109186;1254;75937;-60
2024/02/08 11:29:57;;;;;;;55.90;29.90;;;;;;;5.45;68.99;99829.27;109206;1254;65095;-60
2024/02/08 11:32:24;;;;;;;42.40;22.70;;;;;;;5.47;68.70;99828.28;107541;1257;138489;-60
2024/02/08 11:35:00;;;;;;;37.90;19.00;;;;;;;5.49;68.48;99828.51;105190;1258;62216;-60
2024/02/08 11:37:30;;;;;;;66.30;33.00;;;;;;;5.42;67.91;99827.61;104838;1260;138050;-59
2024/02/08 11:40:01;;;;;;;119.30;62.80;;;;;;;5.40;68.02;99829.45;109130;1254;76385;-60
2024/02/08 11:42:36;;;;;;;47.50;24.10;;;;;;;5.40;67.99;99825.82;109235;1254;65649;-60
2024/02/08 11:45:08;;;;;;;57.70;29.40;;;;;;;5.33;67.74;99824.00;109072;1254;138759;-60
2024/02/08 11:47:37;;;;;;;33.50;16.40;;;;;;;5.22;67.44;99824.90;108956;1254;59854;-60
2024/02/08 11:50:08;;;;;;;18.40;8.60;;;;;;;5.09;67.41;99825.16;104994;1259;138132;-59
2024/02/08 11:52:36;;;;;;;22.10;11.80;;;;;;;5.05;67.45;99815.14;105610;1255;75377;-60
2024/02/08 11:55:12;;;;;;;16.60;7.50;;;;;;;5.06;67.57;99815.17;104966;1257;138445;-60
2024/02/08 11:57:42;;;;;;;23.20;7.10;;;;;;;5.16;67.62;99810.61;104858;1258;74038;-59
2024/02/08 12:00:15;;;;;;;12.70;4.90;;;;;;;5.24;67.44;99811.75;104798;1256;62141;-59
2024/02/08 12:02:58;;;;;;;19.90;6.70;;;;;;;5.30;67.34;99809.81;104917;1260;138413;-68
2024/02/08 12:05:26;;;;;;;18.50;7.20;;;;;;;5.27;67.11;99813.93;105117;1257;76140;-69
2024/02/08 12:07:57;;;;;;;16.50;7.30;;;;;;;5.22;67.00;99814.11;104954;1260;138310;-69
2024/02/08 12:10:25;;;;;;;14.70;7.80;;;;;;;5.18;66.89;99813.45;109166;1254;71420;-69
2024/02/08 12:12:54;;;;;;;21.50;8.50;;;;;;;5.19;66.88;99810.02;109167;1254;60024;-68
2024/02/08 12:15:25;;;;;;;14.10;6.10;;;;;;;5.22;66.69;99810.45;108865;1254;138219;-69
2024/02/08 12:18:08;;;;;;;22.10;8.20;;;;;;;5.21;66.61;99810.41;108937;1254;75535;-69
2024/02/08 12:20:36;;;;;;;22.10;9.80;;;;;;;5.20;66.56;99811.42;107771;1259;137608;-59
2024/02/08 12:23:03;;;;;;;61.90;25.40;;;;;;;5.18;66.50;99814.17;105142;1255;72180;-69
2024/02/08 12:25:30;;;;;;;33.20;16.50;;;;;;;5.19;66.59;99814.20;105002;1254;138146;-69
2024/02/08 12:28:00;;;;;;;25.60;13.70;;;;;;;5.22;66.52;99811.86;105083;1255;62140;-68
2024/02/08 12:30:32;;;;;;;13.90;6.60;;;;;;;5.14;66.29;99807.60;109229;1254;76515;-69
2024/02/08 12:32:59;;;;;;;15.60;6.20;;;;;;;5.07;66.42;99810.34;108834;1257;145532;-68
2024/02/08 12:35:27;;;;;;;14.70;7.30;;;;;;;5.13;66.67;99808.77;108960;1254;73857;-59
2024/02/08 12:37:58;;;;;;;18.70;6.70;;;;;;;5.16;66.71;99803.66;109072;1254;138527;-59
2024/02/08 12:40:32;;;;;;;16.40;7.70;;;;;;;5.07;66.49;99800.08;108976;1254;60495;-59
2024/02/08 12:42:59;;;;;;;14.10;6.40;;;;;;;4.90;66.25;99799.88;108908;1254;138631;-60
2024/02/08 12:45:29;;;;;;;21.00;10.70;;;;;;;4.75;66.25;99798.50;109202;1254;66299;-59
2024/02/08 12:47:57;;;;;;;23.90;12.70;;;;;;;4.62;66.33;99789.92;106921;1254;72670;-60
2024/02/08 12:50:24;;;;;;;51.70;29.70;;;;;;;4.54;66.37;99788.08;105736;1254;137925;-59
2024/02/08 12:52:55;;;;;;;218.90;115.90;;;;;;;4.46;66.50;99788.34;106725;1257;61304;-60
2024/02/08 12:55:29;;;;;;;46.90;26.50;;;;;;;4.39;66.48;99786.90;108880;1254;139703;-59
2024/02/08 12:57:57;;;;;;;20.80;12.00;;;;;;;4.31;66.44;99782.61;105222;1260;66621;-58
2024/02/08 13:00:25;;;;;;;19.40;8.10;;;;;;;4.25;66.58;99781.91;109218;1254;73309;-58
2024/02/08 13:02:54;;;;;;;26.10;9.80;;;;;;;4.21;66.40;99777.76;105212;1260;137729;-60
2024/02/08 13:05:22;;;;;;;18.30;7.50;;;;;;;4.21;66.74;99780.88;105006;1260;62080;-59
2024/02/08 13:07:59;;;;;;;17.90;7.90;;;;;;;4.20;66.63;99781.21;104916;1254;138221;-59
2024/02/08 13:10:28;;;;;;;18.50;8.70;;;;;;;4.17;66.78;99781.08;109149;1254;65717;-60
2024/02/08 13:12:59;;;;;;;20.00;10.40;;;;;;;4.11;66.71;99774.98;108915;1254;72340;-59
2024/02/08 13:15:31;;;;;;;24.30;10.50;;;;;;;4.05;66.81;99779.47;108945;1256;59840;-59
2024/02/08 13:17:58;;;;;;;16.70;8.70;;;;;;;4.02;66.97;99776.75;109017;1254;60135;-59
2024/02/08 13:20:25;;;;;;;22.20;9.60;;;;;;;3.98;67.03;99777.84;109085;1254;144321;-59
2024/02/08 13:22:52;;;;;;;21.80;9.10;;;;;;;3.98;67.07;99783.54;109200;1254;66877;-59
2024/02/08 13:25:19;;;;;;;21.60;9.70;;;;;;;3.97;67.18;99781.77;108854;1254;137954;-60
2024/02/08 13:27:45;;;;;;;21.30;7.80;;;;;;;3.93;67.12;99778.83;109216;1254;59784;-59
2024/02/08 13:30:15;;;;;;;47.50;22.00;;;;;;;3.92;67.18;99779.34;109214;1254;60091;-59
2024/02/08 13:32:51;;;;;;;32.80;17.20;;;;;;;3.92;67.44;99780.20;109047;1254;137926;-59
2024/02/08 13:35:18;;;;;;;60.10;31.00;;;;;;;3.91;67.31;99785.56;105611;1254;65037;-60
2024/02/08 13:37:52;;;;;;;66.60;40.30;;;;;;;3.91;67.49;99787.10;104938;1259;138200;-60
2024/02/08 13:40:19;;;;;;;;;;;;;;;3.89;67.37;99787.38;107828;1259;62152;-59
2024/02/08 13:42:47;;;;;;;78.60;35.30;;;;;;;3.86;67.42;99786.24;109173;1254;59745;-59